Time;durP1;ratioP1;P1;durP2;ratioP2;P2;SDS_P1;SDS_P2;PMS_P1;PMS_P2;Temp;Humidity;BMP_temperature;BMP_pressure;BME280_temperature;BME280_humidity;BME280_pressure;Samples;Min_cycle;Max_cycle;Signal;HPM_P1;HPM_P2
2023/05/05 00:01:12;;;;;;;4.00;3.67;;;;;;;;;;5096921;28;20056;-82
2023/05/05 00:03:38;;;;;;;4.63;4.10;;;;;;;;;;5097125;28;20052;-82
2023/05/05 00:06:05;;;;;;;6.40;4.43;;;;;;;;;;5097221;28;20047;-83
2023/05/05 00:08:32;;;;;;;7.25;3.92;;;;;;;;;;5097003;28;20057;-83
2023/05/05 00:10:58;;;;;;;8.85;4.70;;;;;;;;;;5096812;28;20059;-83
2023/05/05 00:13:24;;;;;;;5.15;4.65;;;;;;;;;;5096625;28;20047;-82
2023/05/05 00:15:51;;;;;;;5.10;4.40;;;;;;;;;;5097076;28;20051;-82
2023/05/05 00:18:17;;;;;;;6.18;4.20;;;;;;;;;;5080577;28;20181;-83
2023/05/05 00:20:46;;;;;;;7.28;4.05;;;;;;;;;;5097082;28;20040;-82
2023/05/05 00:23:12;;;;;;;7.85;4.60;;;;;;;;;;5096821;28;20073;-83
2023/05/05 00:25:38;;;;;;;8.02;4.40;;;;;;;;;;5114502;28;20051;-83
2023/05/05 00:28:05;;;;;;;4.95;4.47;;;;;;;;;;5080147;28;20476;-83
2023/05/05 00:30:31;;;;;;;6.88;4.43;;;;;;;;;;5096768;28;20043;-82
2023/05/05 00:32:57;;;;;;;4.53;4.15;;;;;;;;;;5096525;28;20052;-83
2023/05/05 00:35:23;;;;;;;8.45;4.35;;;;;;;;;;5096636;28;20524;-82
2023/05/05 00:37:49;;;;;;;5.93;3.95;;;;;;;;;;5096306;28;20126;-82
2023/05/05 00:40:17;;;;;;;4.60;4.20;;;;;;;;;;5096407;28;20096;-82
2023/05/05 00:42:43;;;;;;;5.32;3.92;;;;;;;;;;5096200;28;20467;-82
2023/05/05 00:45:13;;;;;;;5.10;3.65;;;;;;;;;;5096238;28;20394;-82
2023/05/05 00:47:40;;;;;;;5.22;4.28;;;;;;;;;;5096737;28;20047;-82
2023/05/05 00:50:08;;;;;;;4.90;4.38;;;;;;;;;;5096543;28;20126;-82
2023/05/05 00:52:37;;;;;;;6.20;4.00;;;;;;;;;;5079628;28;20052;-82
2023/05/05 00:55:04;;;;;;;5.35;4.20;;;;;;;;;;5079500;28;20059;-82
2023/05/05 00:57:31;;;;;;;7.50;4.63;;;;;;;;;;5079168;28;20369;-82
2023/05/05 00:59:58;;;;;;;5.53;4.10;;;;;;;;;;5079228;28;20433;-82
2023/05/05 01:02:24;;;;;;;5.22;4.05;;;;;;;;;;5096334;28;20086;-82
2023/05/05 01:04:51;;;;;;;5.32;4.18;;;;;;;;;;5114159;28;20096;-82
2023/05/05 01:07:36;;;;;;;6.15;4.40;;;;;;;;;;5096190;28;20112;-82
2023/05/05 01:10:05;;;;;;;6.25;4.13;;;;;;;;;;5079471;28;20039;-82
2023/05/05 01:12:40;;;;;;;5.90;4.20;;;;;;;;;;5095881;28;20050;-82
2023/05/05 01:15:14;;;;;;;5.57;4.35;;;;;;;;;;5092607;28;20048;-82
2023/05/05 01:17:47;;;;;;;5.07;3.97;;;;;;;;;;5093132;28;20044;-82
2023/05/05 01:20:32;;;;;;;6.82;4.75;;;;;;;;;;5093064;28;20078;-82
2023/05/05 01:23:02;;;;;;;7.07;4.18;;;;;;;;;;5093260;28;20044;-82
2023/05/05 01:25:28;;;;;;;6.28;3.80;;;;;;;;;;5092903;28;20048;-82
2023/05/05 01:27:54;;;;;;;7.97;4.40;;;;;;;;;;5092655;28;20048;-82
2023/05/05 01:30:39;;;;;;;4.80;4.15;;;;;;;;;;5092548;28;20092;-83
2023/05/05 01:33:10;;;;;;;6.30;4.22;;;;;;;;;;5092037;28;20078;-82
2023/05/05 01:35:42;;;;;;;6.15;4.00;;;;;;;;;;5092626;28;20090;-82
2023/05/05 01:38:15;;;;;;;5.85;4.82;;;;;;;;;;5093483;28;20085;-82
2023/05/05 01:40:45;;;;;;;6.00;4.43;;;;;;;;;;5075680;28;20492;-82
2023/05/05 01:43:12;;;;;;;4.55;4.10;;;;;;;;;;5092351;28;20308;-82
2023/05/05 01:45:41;;;;;;;5.75;4.88;;;;;;;;;;5092159;28;20047;-82
2023/05/05 01:48:07;;;;;;;6.43;4.35;;;;;;;;;;5075399;28;20392;-82
2023/05/05 01:50:34;;;;;;;6.63;4.82;;;;;;;;;;5093504;28;20075;-82
2023/05/05 01:53:01;;;;;;;6.30;4.32;;;;;;;;;;5092396;28;20394;-82
2023/05/05 01:55:27;;;;;;;4.95;4.45;;;;;;;;;;5092346;28;20044;-82
2023/05/05 01:57:55;;;;;;;7.07;4.88;;;;;;;;;;5092222;28;20090;-82
2023/05/05 02:00:23;;;;;;;6.55;4.60;;;;;;;;;;5092563;28;20128;-82
2023/05/05 02:02:50;;;;;;;5.20;4.70;;;;;;;;;;5059396;28;20403;-82
2023/05/05 02:05:18;;;;;;;5.22;4.60;;;;;;;;;;5093265;28;20063;-82
2023/05/05 02:07:45;;;;;;;10.73;4.53;;;;;;;;;;5093093;28;20123;-82
2023/05/05 02:10:12;;;;;;;5.63;4.47;;;;;;;;;;5092618;28;20492;-82
2023/05/05 02:12:40;;;;;;;7.50;5.40;;;;;;;;;;5078971;28;20449;-82
2023/05/05 02:15:07;;;;;;;5.18;4.65;;;;;;;;;;5095914;28;20062;-82
2023/05/05 02:17:33;;;;;;;6.65;4.47;;;;;;;;;;5096103;28;20453;-82
2023/05/05 02:20:01;;;;;;;11.48;5.35;;;;;;;;;;5095948;28;20123;-82
2023/05/05 02:22:27;;;;;;;8.52;5.88;;;;;;;;;;5095943;28;20044;-82
2023/05/05 02:24:53;;;;;;;5.75;5.22;;;;;;;;;;5096875;28;20043;-82
2023/05/05 02:27:21;;;;;;;5.75;4.95;;;;;;;;;;5095890;28;20083;-82
2023/05/05 02:29:48;;;;;;;5.75;4.97;;;;;;;;;;5096771;28;20048;-82
2023/05/05 02:32:17;;;;;;;5.85;5.00;;;;;;;;;;5078740;28;20468;-82
2023/05/05 02:34:45;;;;;;;5.90;5.40;;;;;;;;;;5095749;28;20044;-82
2023/05/05 02:37:13;;;;;;;7.13;5.18;;;;;;;;;;5095615;28;20552;-82
2023/05/05 02:39:57;;;;;;;5.25;4.75;;;;;;;;;;5096582;28;20048;-82
2023/05/05 02:42:25;;;;;;;6.30;5.55;;;;;;;;;;5095899;28;20052;-82
2023/05/05 02:44:53;;;;;;;6.30;4.88;;;;;;;;;;5095492;28;20123;-82
2023/05/05 02:47:20;;;;;;;5.57;5.07;;;;;;;;;;5095304;28;20135;-82
2023/05/05 02:49:46;;;;;;;5.72;4.75;;;;;;;;;;5078521;28;20472;-82
2023/05/05 02:52:13;;;;;;;5.80;5.30;;;;;;;;;;5096283;28;20036;-82
2023/05/05 02:54:39;;;;;;;6.13;5.43;;;;;;;;;;5079013;28;20083;-82
2023/05/05 02:57:05;;;;;;;6.50;4.13;;;;;;;;;;5096093;28;20054;-82
2023/05/05 02:59:46;;;;;;;6.45;4.80;;;;;;;;;;5095185;28;20044;-83
2023/05/05 03:02:15;;;;;;;5.97;4.90;;;;;;;;;;5096000;28;20052;-82
2023/05/05 03:04:54;;;;;;;7.60;4.95;;;;;;;;;;5078267;28;20553;-82
2023/05/05 03:07:25;;;;;;;6.22;5.28;;;;;;;;;;5096856;28;20039;-82
2023/05/05 03:09:54;;;;;;;5.43;4.93;;;;;;;;;;5095271;28;20148;-82
2023/05/05 03:12:21;;;;;;;6.40;5.30;;;;;;;;;;5094618;28;20479;-82
2023/05/05 03:14:50;;;;;;;5.40;4.90;;;;;;;;;;5108672;28;20055;-82
2023/05/05 03:17:17;;;;;;;6.65;5.25;;;;;;;;;;5081208;28;20403;-82
2023/05/05 03:19:44;;;;;;;6.70;5.18;;;;;;;;;;5081231;28;20051;-82
2023/05/05 03:22:10;;;;;;;6.22;5.05;;;;;;;;;;5115952;28;20043;-82
2023/05/05 03:24:36;;;;;;;8.30;5.78;;;;;;;;;;5081208;28;20070;-82
2023/05/05 03:27:02;;;;;;;6.05;5.13;;;;;;;;;;5098864;28;20104;-82
2023/05/05 03:29:29;;;;;;;6.28;5.78;;;;;;;;;;5115945;28;20048;-82
2023/05/05 03:31:55;;;;;;;5.57;5.03;;;;;;;;;;5065262;28;20055;-82
2023/05/05 03:34:27;;;;;;;7.85;5.30;;;;;;;;;;5098673;28;20108;-82
2023/05/05 03:36:53;;;;;;;5.65;5.15;;;;;;;;;;5115832;28;20048;-82
2023/05/05 03:39:19;;;;;;;6.45;5.70;;;;;;;;;;5081293;28;20076;-82
2023/05/05 03:41:45;;;;;;;7.55;5.60;;;;;;;;;;5064309;28;20499;-82
2023/05/05 03:44:11;;;;;;;5.95;5.40;;;;;;;;;;5081045;28;20476;-82
2023/05/05 03:46:37;;;;;;;6.00;5.50;;;;;;;;;;5081091;28;20056;-82
2023/05/05 03:49:04;;;;;;;7.72;5.90;;;;;;;;;;5081136;28;20471;-82
2023/05/05 03:51:30;;;;;;;5.60;5.20;;;;;;;;;;5080976;28;20364;-82
2023/05/05 03:53:56;;;;;;;6.85;5.80;;;;;;;;;;5098307;28;20493;-82
2023/05/05 03:56:22;;;;;;;6.90;6.20;;;;;;;;;;5097350;28;20392;-82
2023/05/05 03:58:48;;;;;;;5.88;5.43;;;;;;;;;;5097525;28;20074;-82
2023/05/05 04:01:14;;;;;;;8.55;5.80;;;;;;;;;;5081009;28;20047;-82
2023/05/05 04:03:40;;;;;;;6.53;5.90;;;;;;;;;;5097298;28;20132;-82
2023/05/05 04:06:06;;;;;;;6.00;5.50;;;;;;;;;;5097896;28;20040;-82
2023/05/05 04:08:32;;;;;;;7.20;6.50;;;;;;;;;;5115762;28;20040;-82
2023/05/05 04:11:01;;;;;;;8.98;5.28;;;;;;;;;;5063795;28;20051;-82
2023/05/05 04:13:27;;;;;;;7.07;6.00;;;;;;;;;;5079771;28;20040;-82
2023/05/05 04:15:53;;;;;;;6.95;6.25;;;;;;;;;;5096857;28;20044;-83
2023/05/05 04:18:20;;;;;;;6.97;6.32;;;;;;;;;;5079811;28;20051;-82
2023/05/05 04:20:46;;;;;;;8.27;7.13;;;;;;;;;;5097015;28;20047;-82
2023/05/05 04:23:12;;;;;;;7.72;7.00;;;;;;;;;;5096989;28;20059;-82
2023/05/05 04:25:38;;;;;;;7.90;6.22;;;;;;;;;;5080233;28;20055;-82
2023/05/05 04:28:04;;;;;;;7.47;6.72;;;;;;;;;;5096667;28;20487;-82
2023/05/05 04:30:30;;;;;;;7.75;7.00;;;;;;;;;;5096620;28;20051;-82
2023/05/05 04:32:56;;;;;;;6.93;6.32;;;;;;;;;;5095819;28;20051;-82
2023/05/05 04:35:22;;;;;;;7.95;7.00;;;;;;;;;;5096534;28;20047;-82
2023/05/05 04:37:48;;;;;;;7.38;6.60;;;;;;;;;;5080634;28;20375;-82
2023/05/05 04:40:15;;;;;;;7.00;6.30;;;;;;;;;;5096983;28;20039;-82
2023/05/05 04:42:41;;;;;;;8.13;6.30;;;;;;;;;;5079711;28;20083;-82
2023/05/05 04:45:08;;;;;;;8.68;6.85;;;;;;;;;;5096292;28;20044;-82
2023/05/05 04:47:37;;;;;;;6.88;6.30;;;;;;;;;;5096277;28;20459;-82
2023/05/05 04:50:04;;;;;;;8.20;6.45;;;;;;;;;;5114271;28;20055;-82
2023/05/05 04:52:30;;;;;;;6.07;5.72;;;;;;;;;;5079717;28;20044;-82
2023/05/05 04:54:56;;;;;;;7.07;6.03;;;;;;;;;;5079493;28;20048;-82
2023/05/05 04:57:23;;;;;;;7.70;6.15;;;;;;;;;;5062906;28;20050;-82
2023/05/05 04:59:49;;;;;;;6.22;5.78;;;;;;;;;;5096372;28;20540;-83
2023/05/05 05:02:15;;;;;;;6.53;6.05;;;;;;;;;;5063203;28;20093;-82
2023/05/05 05:04:41;;;;;;;7.45;6.10;;;;;;;;;;5114294;28;20051;-82
2023/05/05 05:07:08;;;;;;;6.43;5.85;;;;;;;;;;5096280;28;20039;-82
2023/05/05 05:09:34;;;;;;;6.88;6.28;;;;;;;;;;5096256;28;20047;-82
2023/05/05 05:12:03;;;;;;;6.30;5.80;;;;;;;;;;5079442;28;20048;-82
2023/05/05 05:14:29;;;;;;;6.60;6.05;;;;;;;;;;5079132;28;20051;-82
2023/05/05 05:16:55;;;;;;;7.20;6.57;;;;;;;;;;5080185;28;20395;-82
2023/05/05 05:19:21;;;;;;;7.10;6.32;;;;;;;;;;5096957;28;20051;-82
2023/05/05 05:21:47;;;;;;;6.75;6.22;;;;;;;;;;5096094;28;20062;-82
2023/05/05 05:24:13;;;;;;;7.18;6.57;;;;;;;;;;5096098;28;20100;-82
2023/05/05 05:26:39;;;;;;;10.10;7.30;;;;;;;;;;5079123;28;20062;-82
2023/05/05 05:29:06;;;;;;;6.75;6.25;;;;;;;;;;5079197;28;20081;-82
2023/05/05 05:31:33;;;;;;;8.38;6.93;;;;;;;;;;5095794;28;20100;-82
2023/05/05 05:33:59;;;;;;;7.22;6.72;;;;;;;;;;5096300;28;20054;-82
2023/05/05 05:36:25;;;;;;;8.02;6.95;;;;;;;;;;5079884;28;20094;-82
2023/05/05 05:38:51;;;;;;;7.03;6.55;;;;;;;;;;5095648;28;20551;-82
2023/05/05 05:41:17;;;;;;;7.72;7.03;;;;;;;;;;5114392;28;20407;-82
2023/05/05 05:43:44;;;;;;;7.32;6.78;;;;;;;;;;5095926;28;20134;-82
2023/05/05 05:46:11;;;;;;;9.07;7.07;;;;;;;;;;5100238;28;20040;-82
2023/05/05 05:48:37;;;;;;;8.52;6.43;;;;;;;;;;5099945;28;20368;-82
2023/05/05 05:51:03;;;;;;;7.05;6.43;;;;;;;;;;5100737;28;20052;-82
2023/05/05 05:53:29;;;;;;;7.60;6.82;;;;;;;;;;5099601;28;20079;-82
2023/05/05 05:55:55;;;;;;;7.10;6.60;;;;;;;;;;5083282;28;20055;-82
2023/05/05 05:58:21;;;;;;;8.02;7.32;;;;;;;;;;5100596;28;20135;-82
2023/05/05 06:00:48;;;;;;;10.98;7.30;;;;;;;;;;5066222;28;20232;-82
2023/05/05 06:03:14;;;;;;;7.05;6.43;;;;;;;;;;5067065;28;20359;-83
2023/05/05 06:05:40;;;;;;;8.00;6.93;;;;;;;;;;5099922;28;20090;-82
2023/05/05 06:08:06;;;;;;;7.93;7.13;;;;;;;;;;5099326;28;20044;-82
2023/05/05 06:10:32;;;;;;;7.63;6.78;;;;;;;;;;5099211;28;20173;-80
2023/05/05 06:12:59;;;;;;;10.68;7.00;;;;;;;;;;5083208;28;20066;-81
2023/05/05 06:15:25;;;;;;;6.95;6.25;;;;;;;;;;5095838;28;20056;-81
2023/05/05 06:17:51;;;;;;;8.38;7.65;;;;;;;;;;5096695;28;20556;-81
2023/05/05 06:20:17;;;;;;;7.80;7.13;;;;;;;;;;5096035;28;20133;-81
2023/05/05 06:22:43;;;;;;;8.07;7.50;;;;;;;;;;5063093;28;20131;-81
2023/05/05 06:25:10;;;;;;;8.15;7.28;;;;;;;;;;5095917;28;20121;-81
2023/05/05 06:27:36;;;;;;;9.75;7.20;;;;;;;;;;5096864;28;20075;-81
2023/05/05 06:30:02;;;;;;;10.52;7.78;;;;;;;;;;5097540;28;20444;-80
2023/05/05 06:32:28;;;;;;;8.60;6.95;;;;;;;;;;5095573;28;20050;-82
2023/05/05 06:34:54;;;;;;;11.00;7.43;;;;;;;;;;5079142;28;20098;-81
2023/05/05 06:37:20;;;;;;;8.32;7.53;;;;;;;;;;5095714;28;20105;-81
2023/05/05 06:39:46;;;;;;;8.32;7.47;;;;;;;;;;5095892;28;20081;-81
2023/05/05 06:42:12;;;;;;;7.90;7.18;;;;;;;;;;5095876;28;20109;-81
2023/05/05 06:44:38;;;;;;;10.80;7.65;;;;;;;;;;5096363;28;20134;-81
2023/05/05 06:47:04;;;;;;;9.65;7.70;;;;;;;;;;5096331;28;20048;-81
2023/05/05 06:49:30;;;;;;;8.38;7.68;;;;;;;;;;5096419;28;20127;-81
2023/05/05 06:51:56;;;;;;;8.68;7.78;;;;;;;;;;5095823;28;20087;-82
2023/05/05 06:54:23;;;;;;;9.32;7.80;;;;;;;;;;5096376;28;20040;-82
2023/05/05 06:56:49;;;;;;;7.72;7.22;;;;;;;;;;5095452;28;20048;-80
2023/05/05 06:59:15;;;;;;;8.60;7.72;;;;;;;;;;5078473;28;20044;-82
2023/05/05 07:01:41;;;;;;;9.38;7.60;;;;;;;;;;5078870;28;20472;-81
2023/05/05 07:04:07;;;;;;;8.60;7.78;;;;;;;;;;5095178;28;20135;-81
2023/05/05 07:06:33;;;;;;;9.20;8.20;;;;;;;;;;5094981;28;20083;-81
2023/05/05 07:09:00;;;;;;;9.07;8.18;;;;;;;;;;5078232;28;20097;-81
2023/05/05 07:11:26;;;;;;;8.82;8.02;;;;;;;;;;5096600;28;20425;-81
2023/05/05 07:13:52;;;;;;;9.23;8.10;;;;;;;;;;5097130;28;20055;-83
2023/05/05 07:16:18;;;;;;;9.07;8.10;;;;;;;;;;5065193;28;20438;-81
2023/05/05 07:18:44;;;;;;;9.73;8.38;;;;;;;;;;5097812;28;20475;-81
2023/05/05 07:21:10;;;;;;;9.07;8.18;;;;;;;;;;5098218;28;20157;-83
2023/05/05 07:23:37;;;;;;;8.75;7.97;;;;;;;;;;5081402;28;20089;-83
2023/05/05 07:26:03;;;;;;;8.90;8.13;;;;;;;;;;5081471;28;20108;-83
2023/05/05 07:28:29;;;;;;;9.93;8.88;;;;;;;;;;5098408;28;20058;-80
2023/05/05 07:30:55;;;;;;;9.80;9.02;;;;;;;;;;5098027;28;20043;-81
2023/05/05 07:33:21;;;;;;;10.05;9.00;;;;;;;;;;5097736;28;20476;-81
2023/05/05 07:35:47;;;;;;;9.75;8.95;;;;;;;;;;5115920;28;20104;-82
2023/05/05 07:38:14;;;;;;;9.18;8.52;;;;;;;;;;5097836;28;20044;-83
2023/05/05 07:40:40;;;;;;;10.60;9.27;;;;;;;;;;5098127;28;20049;-81
2023/05/05 07:43:06;;;;;;;10.23;9.18;;;;;;;;;;5098096;28;20043;-80
2023/05/05 07:45:32;;;;;;;9.20;8.50;;;;;;;;;;5098324;28;20497;-80
2023/05/05 07:47:58;;;;;;;9.95;9.20;;;;;;;;;;5115709;28;20440;-85
2023/05/05 07:50:25;;;;;;;10.40;9.48;;;;;;;;;;5080794;28;20044;-82
2023/05/05 07:52:51;;;;;;;10.20;9.40;;;;;;;;;;5096980;28;20558;-82
2023/05/05 07:55:17;;;;;;;10.52;9.50;;;;;;;;;;5081633;28;20421;-82
2023/05/05 07:57:43;;;;;;;11.05;10.00;;;;;;;;;;5080601;28;20051;-82
2023/05/05 08:00:09;;;;;;;9.93;8.98;;;;;;;;;;5080908;28;20075;-82
2023/05/05 08:02:35;;;;;;;10.23;9.20;;;;;;;;;;5097235;28;20043;-82
2023/05/05 08:05:01;;;;;;;10.35;9.45;;;;;;;;;;5080428;28;20232;-82
2023/05/05 08:07:27;;;;;;;9.68;8.75;;;;;;;;;;5115324;28;20101;-82
2023/05/05 08:09:53;;;;;;;9.18;8.45;;;;;;;;;;5097287;28;20054;-83
2023/05/05 08:12:19;;;;;;;9.77;9.05;;;;;;;;;;5096973;28;20052;-82
2023/05/05 08:14:45;;;;;;;10.25;9.23;;;;;;;;;;5091296;28;20062;-82
2023/05/05 08:17:12;;;;;;;9.68;8.77;;;;;;;;;;5077269;28;20056;-83
2023/05/05 08:19:38;;;;;;;9.88;9.10;;;;;;;;;;5093455;28;20058;-83
2023/05/05 08:22:04;;;;;;;10.35;9.40;;;;;;;;;;5093122;28;20040;-83
2023/05/05 08:24:30;;;;;;;10.90;10.00;;;;;;;;;;5077695;28;20425;-83
2023/05/05 08:26:56;;;;;;;11.82;10.80;;;;;;;;;;5094383;28;20372;-83
2023/05/05 08:29:22;;;;;;;11.50;10.40;;;;;;;;;;5095322;28;20075;-82
2023/05/05 08:31:48;;;;;;;12.30;11.30;;;;;;;;;;5076459;28;20054;-83
2023/05/05 08:34:14;;;;;;;11.95;10.95;;;;;;;;;;5093430;28;20052;-82
2023/05/05 08:36:40;;;;;;;11.38;10.30;;;;;;;;;;5094395;28;20094;-82
2023/05/05 08:39:07;;;;;;;11.57;10.57;;;;;;;;;;5094302;28;20048;-82
2023/05/05 08:41:33;;;;;;;11.68;10.60;;;;;;;;;;5094159;28;20067;-82
2023/05/05 08:43:59;;;;;;;11.82;10.82;;;;;;;;;;5093335;28;20052;-83
2023/05/05 08:46:26;;;;;;;12.05;10.90;;;;;;;;;;5094017;28;20047;-82
2023/05/05 08:48:54;;;;;;;11.70;10.75;;;;;;;;;;5094225;28;20056;-83
2023/05/05 08:51:20;;;;;;;12.60;11.23;;;;;;;;;;5094074;28;20051;-82
2023/05/05 08:53:57;;;;;;;12.00;10.98;;;;;;;;;;5092801;28;20040;-82
2023/05/05 08:56:31;;;;;;;11.55;10.50;;;;;;;;;;5093078;28;20492;-82
2023/05/05 08:58:58;;;;;;;11.13;10.27;;;;;;;;;;5094099;28;20058;-82
2023/05/05 09:01:24;;;;;;;12.20;11.35;;;;;;;;;;5092913;28;20048;-82
2023/05/05 09:03:51;;;;;;;13.05;11.75;;;;;;;;;;5093903;28;20511;-82
2023/05/05 09:06:20;;;;;;;13.02;11.93;;;;;;;;;;5076209;28;20051;-83
2023/05/05 09:08:46;;;;;;;11.35;10.48;;;;;;;;;;5092870;28;20055;-83
2023/05/05 09:11:12;;;;;;;13.23;12.02;;;;;;;;;;5093457;28;20082;-83
2023/05/05 09:13:38;;;;;;;13.15;12.02;;;;;;;;;;5075754;28;20498;-83
2023/05/05 09:16:04;;;;;;;12.52;11.35;;;;;;;;;;5092146;28;20055;-83
2023/05/05 09:18:31;;;;;;;12.88;11.93;;;;;;;;;;5075434;28;20545;-83
2023/05/05 09:20:57;;;;;;;13.55;12.15;;;;;;;;;;5092423;28;20377;-82
2023/05/05 09:23:23;;;;;;;21.42;13.27;;;;;;;;;;5076183;28;20052;-82
2023/05/05 09:26:07;;;;;;;15.32;13.80;;;;;;;;;;5075729;28;20388;-83
2023/05/05 09:28:33;;;;;;;14.52;12.93;;;;;;;;;;5075860;28;20048;-83
2023/05/05 09:31:14;;;;;;;19.65;12.40;;;;;;;;;;5093583;28;20093;-83
2023/05/05 09:33:40;;;;;;;15.48;12.90;;;;;;;;;;5076322;28;20046;-83
2023/05/05 09:36:06;;;;;;;14.23;13.13;;;;;;;;;;5093636;28;20048;-83
2023/05/05 09:38:35;;;;;;;13.68;12.38;;;;;;;;;;5092913;28;20091;-83
2023/05/05 09:41:01;;;;;;;14.57;13.15;;;;;;;;;;5092601;28;20091;-83
2023/05/05 09:43:27;;;;;;;13.77;12.57;;;;;;;;;;5093584;28;20044;-83
2023/05/05 09:46:05;;;;;;;14.90;13.70;;;;;;;;;;5093505;28;20090;-83
2023/05/05 09:48:31;;;;;;;13.73;12.55;;;;;;;;;;5092806;28;20063;-83
2023/05/05 09:50:58;;;;;;;12.73;11.77;;;;;;;;;;5092806;28;20494;-83
2023/05/05 09:53:25;;;;;;;13.50;12.40;;;;;;;;;;5092188;28;20055;-83
2023/05/05 09:55:54;;;;;;;11.65;10.70;;;;;;;;;;5075817;28;20052;-83
2023/05/05 09:58:24;;;;;;;12.75;11.70;;;;;;;;;;5092495;28;20051;-83
2023/05/05 10:00:50;;;;;;;12.32;11.20;;;;;;;;;;5093384;28;20055;-83
2023/05/05 10:03:17;;;;;;;14.23;12.88;;;;;;;;;;5092290;28;20109;-82
2023/05/05 10:05:51;;;;;;;12.93;11.85;;;;;;;;;;5092663;28;20087;-82
2023/05/05 10:08:18;;;;;;;12.03;11.03;;;;;;;;;;5092204;28;20420;-82
2023/05/05 10:10:50;;;;;;;13.13;11.98;;;;;;;;;;5075523;28;20510;-83
2023/05/05 10:13:18;;;;;;;11.90;10.80;;;;;;;;;;5075555;28;20040;-82
2023/05/05 10:15:45;;;;;;;12.20;10.57;;;;;;;;;;5091728;28;20052;-82
2023/05/05 10:18:13;;;;;;;10.95;9.93;;;;;;;;;;5092279;28;20044;-82
2023/05/05 10:20:40;;;;;;;11.93;10.75;;;;;;;;;;5092304;28;20040;-82
2023/05/05 10:23:07;;;;;;;9.93;9.20;;;;;;;;;;5092252;28;20048;-82
2023/05/05 10:25:46;;;;;;;9.90;9.10;;;;;;;;;;5093036;28;20048;-83
2023/05/05 10:28:16;;;;;;;7.80;7.20;;;;;;;;;;5093715;28;20048;-82
2023/05/05 10:30:43;;;;;;;6.75;6.35;;;;;;;;;;5093958;28;20045;-82
2023/05/05 10:33:16;;;;;;;4.43;3.13;;;;;;;;;;5097296;28;20048;-82
2023/05/05 10:35:43;;;;;;;7.35;6.65;;;;;;;;;;5096687;28;20127;-82
2023/05/05 10:38:10;;;;;;;8.07;7.28;;;;;;;;;;5096051;28;20130;-82
2023/05/05 10:40:37;;;;;;;7.10;6.43;;;;;;;;;;5078869;28;20048;-82
2023/05/05 10:43:03;;;;;;;5.95;5.13;;;;;;;;;;5095663;28;20070;-82
2023/05/05 10:45:30;;;;;;;5.20;4.78;;;;;;;;;;5095667;28;20109;-82
2023/05/05 10:47:58;;;;;;;4.75;4.35;;;;;;;;;;5095872;28;20472;-83
2023/05/05 10:50:36;;;;;;;5.13;3.78;;;;;;;;;;5078394;28;20123;-83
2023/05/05 10:53:21;;;;;;;4.30;4.00;;;;;;;;;;5078394;28;20391;-82
2023/05/05 10:55:47;;;;;;;5.20;4.75;;;;;;;;;;5095401;28;20411;-82
2023/05/05 10:58:34;;;;;;;4.38;4.03;;;;;;;;;;5096869;28;20052;-82
2023/05/05 11:01:01;;;;;;;3.53;3.30;;;;;;;;;;5079012;28;20056;-83
2023/05/05 11:03:27;;;;;;;3.40;2.72;;;;;;;;;;5095111;28;20123;-82
2023/05/05 11:06:03;;;;;;;2.55;1.67;;;;;;;;;;5078305;28;20051;-82
2023/05/05 11:08:29;;;;;;;3.88;0.85;;;;;;;;;;5079147;28;20052;-82
2023/05/05 11:10:55;;;;;;;2.50;0.90;;;;;;;;;;5094862;28;20502;-82
2023/05/05 11:13:22;;;;;;;2.85;1.20;;;;;;;;;;5096046;28;20044;-82
2023/05/05 11:15:49;;;;;;;1.20;0.60;;;;;;;;;;5078678;28;20396;-83
2023/05/05 11:18:27;;;;;;;2.42;0.60;;;;;;;;;;5094956;28;20091;-82
2023/05/05 11:20:56;;;;;;;1.20;0.70;;;;;;;;;;5095161;28;20048;-82
2023/05/05 11:23:23;;;;;;;1.50;0.80;;;;;;;;;;5078034;28;20131;-82
2023/05/05 11:25:50;;;;;;;2.10;1.00;;;;;;;;;;5094671;28;20048;-82
2023/05/05 11:28:17;;;;;;;4.03;0.80;;;;;;;;;;5078004;28;20101;-82
2023/05/05 11:30:56;;;;;;;2.88;1.20;;;;;;;;;;5095704;28;20055;-82
2023/05/05 11:33:28;;;;;;;3.45;0.90;;;;;;;;;;5095322;28;20040;-82
2023/05/05 11:35:54;;;;;;;1.85;0.85;;;;;;;;;;5078672;28;20095;-83
2023/05/05 11:38:23;;;;;;;3.38;0.80;;;;;;;;;;5077848;28;20052;-82
2023/05/05 11:40:50;;;;;;;2.50;1.00;;;;;;;;;;5095580;28;20093;-82
2023/05/05 11:43:18;;;;;;;3.10;0.98;;;;;;;;;;5094903;28;20046;-82
2023/05/05 11:45:44;;;;;;;1.30;0.80;;;;;;;;;;5094623;28;20123;-82
2023/05/05 11:48:26;;;;;;;3.42;1.17;;;;;;;;;;5095415;28;20395;-82
2023/05/05 11:51:01;;;;;;;1.63;1.20;;;;;;;;;;5094588;28;20048;-82
2023/05/05 11:53:27;;;;;;;2.55;1.30;;;;;;;;;;5094365;28;20120;-82
2023/05/05 11:56:05;;;;;;;3.15;1.55;;;;;;;;;;5060913;28;20096;-82
2023/05/05 11:58:31;;;;;;;3.80;1.77;;;;;;;;;;5095102;28;20059;-82
2023/05/05 12:00:57;;;;;;;2.03;1.23;;;;;;;;;;5094225;28;20052;-82
2023/05/05 12:03:23;;;;;;;1.88;1.77;;;;;;;;;;5077226;28;20468;-82
2023/05/05 12:05:53;;;;;;;2.40;1.65;;;;;;;;;;5077397;28;20044;-82
2023/05/05 12:08:19;;;;;;;2.75;1.40;;;;;;;;;;5094050;28;20123;-82
2023/05/05 12:10:45;;;;;;;3.60;0.95;;;;;;;;;;5094541;28;20388;-82
2023/05/05 12:13:21;;;;;;;2.75;1.23;;;;;;;;;;5076957;28;20054;-82
2023/05/05 12:15:47;;;;;;;3.00;1.10;;;;;;;;;;5061045;28;20138;-82
2023/05/05 12:18:20;;;;;;;1.20;1.00;;;;;;;;;;5094725;28;20350;-82
2023/05/05 12:20:46;;;;;;;2.40;1.00;;;;;;;;;;5060362;28;20048;-82
2023/05/05 12:23:13;;;;;;;2.58;1.10;;;;;;;;;;5094035;28;20044;-82
2023/05/05 12:25:39;;;;;;;2.00;1.20;;;;;;;;;;5093650;28;20048;-82
2023/05/05 12:28:07;;;;;;;1.92;0.93;;;;;;;;;;5094451;28;20051;-82
2023/05/05 12:30:33;;;;;;;1.48;1.00;;;;;;;;;;5076601;28;20543;-82
2023/05/05 12:33:06;;;;;;;1.48;0.70;;;;;;;;;;5093610;28;20118;-82
2023/05/05 12:35:32;;;;;;;4.18;0.90;;;;;;;;;;5093529;28;20499;-82
2023/05/05 12:37:59;;;;;;;1.80;0.65;;;;;;;;;;5093298;28;20071;-82
2023/05/05 12:40:45;;;;;;;2.88;1.20;;;;;;;;;;5076932;28;20392;-82
2023/05/05 12:43:23;;;;;;;1.52;0.90;;;;;;;;;;5066900;28;20095;-82
2023/05/05 12:45:59;;;;;;;2.45;1.30;;;;;;;;;;5076677;28;20055;-82
2023/05/05 12:48:25;;;;;;;2.95;1.15;;;;;;;;;;5094098;28;20044;-82
2023/05/05 12:50:51;;;;;;;3.13;1.20;;;;;;;;;;5094768;28;20135;-82
2023/05/05 12:53:24;;;;;;;1.70;1.42;;;;;;;;;;5094627;28;20113;-82
2023/05/05 12:55:50;;;;;;;9.38;0.60;;;;;;;;;;5092914;28;20377;-82
2023/05/05 12:58:16;;;;;;;6.10;0.38;;;;;;;;;;5077029;28;20071;-82
2023/05/05 13:00:43;;;;;;;0.77;0.10;;;;;;;;;;5093909;28;20046;-82
2023/05/05 13:03:21;;;;;;;3.28;0.45;;;;;;;;;;5094002;28;20051;-82
2023/05/05 13:05:47;;;;;;;2.15;0.30;;;;;;;;;;5093275;28;20070;-82
2023/05/05 13:08:13;;;;;;;2.55;0.50;;;;;;;;;;5093946;28;20044;-84
2023/05/05 13:10:55;;;;;;;2.35;0.47;;;;;;;;;;5093010;28;20070;-82
2023/05/05 13:13:21;;;;;;;2.72;0.60;;;;;;;;;;5094445;28;20040;-81
2023/05/05 13:15:48;;;;;;;3.28;1.00;;;;;;;;;;5110840;28;20441;-79
2023/05/05 13:18:14;;;;;;;4.47;0.85;;;;;;;;;;5097005;28;20138;-81
2023/05/05 13:20:40;;;;;;;3.92;0.80;;;;;;;;;;5097018;28;20040;-80
2023/05/05 13:23:06;;;;;;;3.17;0.50;;;;;;;;;;5095976;28;20044;-81
2023/05/05 13:25:32;;;;;;;2.35;0.50;;;;;;;;;;5114174;28;20056;-81
2023/05/05 13:27:58;;;;;;;2.85;0.30;;;;;;;;;;5096145;28;20047;-81
2023/05/05 13:30:25;;;;;;;2.22;0.30;;;;;;;;;;5096026;28;20471;-80
2023/05/05 13:32:51;;;;;;;1.10;0.20;;;;;;;;;;5114426;28;20047;-80
2023/05/05 13:35:17;;;;;;;1.15;0.20;;;;;;;;;;5096047;28;20035;-81
2023/05/05 13:37:44;;;;;;;0.70;0.13;;;;;;;;;;5079568;28;20499;-83
2023/05/05 13:40:12;;;;;;;0.98;0.20;;;;;;;;;;5095934;28;20051;-83
2023/05/05 13:42:38;;;;;;;1.23;0.20;;;;;;;;;;5095969;28;20111;-84
2023/05/05 13:45:04;;;;;;;0.40;0.10;;;;;;;;;;5095982;28;20055;-84
2023/05/05 13:47:30;;;;;;;1.48;0.10;;;;;;;;;;5096697;28;20054;-84
2023/05/05 13:49:56;;;;;;;0.70;0.20;;;;;;;;;;5095885;28;20051;-83
2023/05/05 13:52:22;;;;;;;0.75;0.10;;;;;;;;;;5113805;28;20044;-83
2023/05/05 13:54:49;;;;;;;1.38;0.10;;;;;;;;;;5079101;28;20134;-82
2023/05/05 13:57:15;;;;;;;1.40;0.10;;;;;;;;;;5079845;28;20367;-81
2023/05/05 13:59:41;;;;;;;0.65;0.10;;;;;;;;;;5096098;28;20079;-80
2023/05/05 14:02:07;;;;;;;1.48;0.10;;;;;;;;;;5095607;28;20044;-79
2023/05/05 14:04:33;;;;;;;0.95;0.10;;;;;;;;;;5113784;28;20051;-80
2023/05/05 14:06:59;;;;;;;1.17;0.10;;;;;;;;;;5099826;28;20043;-80
2023/05/05 14:09:26;;;;;;;0.80;0.08;;;;;;;;;;5117407;28;20368;-80
2023/05/05 14:11:52;;;;;;;1.70;0.10;;;;;;;;;;5082391;28;20054;-80
2023/05/05 14:14:18;;;;;;;1.48;0.30;;;;;;;;;;5099604;28;20056;-80
2023/05/05 14:16:45;;;;;;;1.88;0.20;;;;;;;;;;5100489;28;20054;-79
2023/05/05 14:19:11;;;;;;;1.23;0.10;;;;;;;;;;5099797;28;20130;-80
2023/05/05 14:21:37;;;;;;;1.00;0.20;;;;;;;;;;5117986;28;20047;-80
2023/05/05 14:24:03;;;;;;;2.15;0.30;;;;;;;;;;5099498;28;20044;-79
2023/05/05 14:26:29;;;;;;;2.65;0.20;;;;;;;;;;5099370;28;20073;-80
2023/05/05 14:28:55;;;;;;;1.35;0.20;;;;;;;;;;5099666;28;20051;-79
2023/05/05 14:31:21;;;;;;;3.13;0.28;;;;;;;;;;5098924;28;20127;-80
2023/05/05 14:33:47;;;;;;;1.60;0.20;;;;;;;;;;5082236;28;20089;-80
2023/05/05 14:36:13;;;;;;;0.98;0.20;;;;;;;;;;5117209;28;20307;-81
2023/05/05 14:38:40;;;;;;;3.75;0.30;;;;;;;;;;5082255;28;20060;-80
2023/05/05 14:41:06;;;;;;;2.25;0.20;;;;;;;;;;5099043;28;20069;-80